sensor_id;sensor_type;location;lat;lon;timestamp;temperature;humidity
5560;DHT22;2803;47.916;8.074;2022-07-21T00:01:08;23.20;99.90
5560;DHT22;2803;47.916;8.074;2022-07-21T00:03:35;23.30;99.90
5560;DHT22;2803;47.916;8.074;2022-07-21T00:06:01;23.30;99.90
5560;DHT22;2803;47.916;8.074;2022-07-21T00:08:28;23.00;99.90
5560;DHT22;2803;47.916;8.074;2022-07-21T00:10:55;23.10;99.90
5560;DHT22;2803;47.916;8.074;2022-07-21T00:13:22;23.20;99.90
5560;DHT22;2803;47.916;8.074;2022-07-21T00:15:50;23.30;99.90
5560;DHT22;2803;47.916;8.074;2022-07-21T00:18:17;23.30;99.90
5560;DHT22;2803;47.916;8.074;2022-07-21T00:20:44;23.10;99.90
5560;DHT22;2803;47.916;8.074;2022-07-21T00:23:10;23.10;99.90
5560;DHT22;2803;47.916;8.074;2022-07-21T00:25:37;23.20;99.90
5560;DHT22;2803;47.916;8.074;2022-07-21T00:28:05;23.20;99.90
5560;DHT22;2803;47.916;8.074;2022-07-21T00:30:31;23.40;99.90
5560;DHT22;2803;47.916;8.074;2022-07-21T00:33:00;23.40;99.90
5560;DHT22;2803;47.916;8.074;2022-07-21T00:35:26;23.60;99.90
5560;DHT22;2803;47.916;8.074;2022-07-21T00:37:53;23.70;99.90
5560;DHT22;2803;47.916;8.074;2022-07-21T00:40:20;23.70;99.90
5560;DHT22;2803;47.916;8.074;2022-07-21T00:42:46;23.60;99.90
5560;DHT22;2803;47.916;8.074;2022-07-21T00:45:13;23.60;99.90
5560;DHT22;2803;47.916;8.074;2022-07-21T00:47:40;23.60;99.90
5560;DHT22;2803;47.916;8.074;2022-07-21T00:50:10;23.50;99.90
5560;DHT22;2803;47.916;8.074;2022-07-21T00:52:38;23.50;99.90
5560;DHT22;2803;47.916;8.074;2022-07-21T00:55:05;23.20;99.90
5560;DHT22;2803;47.916;8.074;2022-07-21T00:57:35;23.30;99.90
5560;DHT22;2803;47.916;8.074;2022-07-21T01:00:02;23.40;99.90
5560;DHT22;2803;47.916;8.074;2022-07-21T01:02:29;23.50;99.90
5560;DHT22;2803;47.916;8.074;2022-07-21T01:04:57;23.50;99.90
5560;DHT22;2803;47.916;8.074;2022-07-21T01:07:25;23.40;99.90
5560;DHT22;2803;47.916;8.074;2022-07-21T01:09:52;23.20;99.90
5560;DHT22;2803;47.916;8.074;2022-07-21T01:12:19;23.20;99.90
5560;DHT22;2803;47.916;8.074;2022-07-21T01:14:46;23.40;99.90
5560;DHT22;2803;47.916;8.074;2022-07-21T01:17:12;23.50;99.90
5560;DHT22;2803;47.916;8.074;2022-07-21T01:19:40;23.40;99.90
5560;DHT22;2803;47.916;8.074;2022-07-21T01:22:08;23.30;99.90
5560;DHT22;2803;47.916;8.074;2022-07-21T01:24:35;23.30;99.90
5560;DHT22;2803;47.916;8.074;2022-07-21T01:27:02;23.20;99.90
5560;DHT22;2803;47.916;8.074;2022-07-21T01:29:28;23.20;99.90
5560;DHT22;2803;47.916;8.074;2022-07-21T01:31:55;23.20;99.90
5560;DHT22;2803;47.916;8.074;2022-07-21T01:34:21;22.80;99.90
5560;DHT22;2803;47.916;8.074;2022-07-21T01:36:48;22.60;99.90
5560;DHT22;2803;47.916;8.074;2022-07-21T01:39:16;22.90;99.90
5560;DHT22;2803;47.916;8.074;2022-07-21T01:41:57;22.90;99.90
5560;DHT22;2803;47.916;8.074;2022-07-21T01:44:23;23.10;99.90
5560;DHT22;2803;47.916;8.074;2022-07-21T01:46:51;22.90;99.90
5560;DHT22;2803;47.916;8.074;2022-07-21T01:49:19;23.00;99.90
5560;DHT22;2803;47.916;8.074;2022-07-21T01:51:47;22.80;99.90
5560;DHT22;2803;47.916;8.074;2022-07-21T01:54:14;22.90;99.90
5560;DHT22;2803;47.916;8.074;2022-07-21T01:56:42;23.00;99.90
5560;DHT22;2803;47.916;8.074;2022-07-21T01:59:08;23.00;99.90
5560;DHT22;2803;47.916;8.074;2022-07-21T02:01:35;22.90;99.90
5560;DHT22;2803;47.916;8.074;2022-07-21T02:04:03;22.90;99.90
5560;DHT22;2803;47.916;8.074;2022-07-21T02:06:30;22.60;99.90
5560;DHT22;2803;47.916;8.074;2022-07-21T02:08:57;22.30;99.90
5560;DHT22;2803;47.916;8.074;2022-07-21T02:11:24;22.50;99.90
5560;DHT22;2803;47.916;8.074;2022-07-21T02:13:52;22.50;99.90
5560;DHT22;2803;47.916;8.074;2022-07-21T02:16:18;21.70;99.90
5560;DHT22;2803;47.916;8.074;2022-07-21T02:18:45;22.00;99.90
5560;DHT22;2803;47.916;8.074;2022-07-21T02:21:12;22.20;99.90
5560;DHT22;2803;47.916;8.074;2022-07-21T02:23:39;22.20;99.90
5560;DHT22;2803;47.916;8.074;2022-07-21T02:26:06;21.90;99.90
5560;DHT22;2803;47.916;8.074;2022-07-21T02:28:32;22.10;99.90
5560;DHT22;2803;47.916;8.074;2022-07-21T02:31:00;21.80;99.90
5560;DHT22;2803;47.916;8.074;2022-07-21T02:33:27;21.30;99.90
5560;DHT22;2803;47.916;8.074;2022-07-21T02:35:54;21.60;99.90
5560;DHT22;2803;47.916;8.074;2022-07-21T02:38:20;21.60;99.90
5560;DHT22;2803;47.916;8.074;2022-07-21T02:40:47;21.40;99.90
5560;DHT22;2803;47.916;8.074;2022-07-21T02:43:13;21.50;99.90
5560;DHT22;2803;47.916;8.074;2022-07-21T02:45:40;21.60;99.90
5560;DHT22;2803;47.916;8.074;2022-07-21T02:48:12;21.80;99.90
5560;DHT22;2803;47.916;8.074;2022-07-21T02:50:40;21.90;99.90
5560;DHT22;2803;47.916;8.074;2022-07-21T02:53:10;21.00;99.90
5560;DHT22;2803;47.916;8.074;2022-07-21T02:55:38;21.30;99.90
5560;DHT22;2803;47.916;8.074;2022-07-21T02:58:07;21.50;99.90
5560;DHT22;2803;47.916;8.074;2022-07-21T03:00:34;21.40;99.90
5560;DHT22;2803;47.916;8.074;2022-07-21T03:03:02;21.30;99.90
5560;DHT22;2803;47.916;8.074;2022-07-21T03:05:31;21.30;99.90
5560;DHT22;2803;47.916;8.074;2022-07-21T03:07:58;21.40;99.90
5560;DHT22;2803;47.916;8.074;2022-07-21T03:10:25;21.30;99.90
5560;DHT22;2803;47.916;8.074;2022-07-21T03:12:53;21.50;99.90
5560;DHT22;2803;47.916;8.074;2022-07-21T03:15:19;21.30;99.90
5560;DHT22;2803;47.916;8.074;2022-07-21T03:17:46;21.60;99.90
5560;DHT22;2803;47.916;8.074;2022-07-21T03:20:13;21.70;99.90
5560;DHT22;2803;47.916;8.074;2022-07-21T03:22:41;21.80;99.90
5560;DHT22;2803;47.916;8.074;2022-07-21T03:25:08;21.80;99.90
5560;DHT22;2803;47.916;8.074;2022-07-21T03:27:34;21.70;99.90
5560;DHT22;2803;47.916;8.074;2022-07-21T03:30:04;21.70;99.90
5560;DHT22;2803;47.916;8.074;2022-07-21T03:32:31;21.80;99.90
5560;DHT22;2803;47.916;8.074;2022-07-21T03:34:58;21.90;99.90
5560;DHT22;2803;47.916;8.074;2022-07-21T03:37:25;21.90;99.90
5560;DHT22;2803;47.916;8.074;2022-07-21T03:39:53;21.60;99.90
5560;DHT22;2803;47.916;8.074;2022-07-21T03:42:20;21.30;99.90
5560;DHT22;2803;47.916;8.074;2022-07-21T03:44:46;21.20;99.90
5560;DHT22;2803;47.916;8.074;2022-07-21T03:47:13;21.00;99.90
5560;DHT22;2803;47.916;8.074;2022-07-21T03:49:39;21.10;99.90
5560;DHT22;2803;47.916;8.074;2022-07-21T03:52:06;20.90;99.90
5560;DHT22;2803;47.916;8.074;2022-07-21T03:54:32;20.60;99.90
5560;DHT22;2803;47.916;8.074;2022-07-21T03:57:00;20.90;99.90
5560;DHT22;2803;47.916;8.074;2022-07-21T03:59:27;20.90;99.90
5560;DHT22;2803;47.916;8.074;2022-07-21T04:01:54;20.80;99.90
5560;DHT22;2803;47.916;8.074;2022-07-21T04:04:20;21.10;99.90
5560;DHT22;2803;47.916;8.074;2022-07-21T04:06:47;20.90;99.90
5560;DHT22;2803;47.916;8.074;2022-07-21T04:09:13;20.90;99.90
5560;DHT22;2803;47.916;8.074;2022-07-21T04:11:42;21.10;99.90
5560;DHT22;2803;47.916;8.074;2022-07-21T04:14:10;21.30;99.90
5560;DHT22;2803;47.916;8.074;2022-07-21T04:16:37;21.30;99.90
5560;DHT22;2803;47.916;8.074;2022-07-21T04:19:04;21.40;99.90
5560;DHT22;2803;47.916;8.074;2022-07-21T04:21:30;21.30;99.90
5560;DHT22;2803;47.916;8.074;2022-07-21T04:23:57;21.10;99.90
5560;DHT22;2803;47.916;8.074;2022-07-21T04:26:24;21.00;99.90
5560;DHT22;2803;47.916;8.074;2022-07-21T04:28:53;20.90;99.90
5560;DHT22;2803;47.916;8.074;2022-07-21T04:31:21;20.50;99.90
5560;DHT22;2803;47.916;8.074;2022-07-21T04:33:54;20.90;99.90
5560;DHT22;2803;47.916;8.074;2022-07-21T04:36:21;20.60;99.90
5560;DHT22;2803;47.916;8.074;2022-07-21T04:38:47;20.80;99.90
5560;DHT22;2803;47.916;8.074;2022-07-21T04:41:14;20.90;99.90
5560;DHT22;2803;47.916;8.074;2022-07-21T04:43:41;21.00;99.90
5560;DHT22;2803;47.916;8.074;2022-07-21T04:46:08;20.70;99.90
5560;DHT22;2803;47.916;8.074;2022-07-21T04:48:38;20.70;99.90
5560;DHT22;2803;47.916;8.074;2022-07-21T04:51:13;21.00;99.90
5560;DHT22;2803;47.916;8.074;2022-07-21T04:53:40;21.10;99.90
5560;DHT22;2803;47.916;8.074;2022-07-21T04:56:06;21.00;99.90
5560;DHT22;2803;47.916;8.074;2022-07-21T04:58:33;20.60;99.90
5560;DHT22;2803;47.916;8.074;2022-07-21T05:01:00;20.90;99.90
5560;DHT22;2803;47.916;8.074;2022-07-21T05:03:26;21.00;99.90
5560;DHT22;2803;47.916;8.074;2022-07-21T05:05:54;21.10;99.90
5560;DHT22;2803;47.916;8.074;2022-07-21T05:08:21;21.10;99.90
5560;DHT22;2803;47.916;8.074;2022-07-21T05:10:47;21.00;99.90
5560;DHT22;2803;47.916;8.074;2022-07-21T05:13:14;20.60;99.90
5560;DHT22;2803;47.916;8.074;2022-07-21T05:15:40;20.30;99.90
5560;DHT22;2803;47.916;8.074;2022-07-21T05:18:07;20.80;99.90
5560;DHT22;2803;47.916;8.074;2022-07-21T05:20:34;20.60;99.90
5560;DHT22;2803;47.916;8.074;2022-07-21T05:23:02;20.80;99.90
5560;DHT22;2803;47.916;8.074;2022-07-21T05:25:29;21.00;99.90
5560;DHT22;2803;47.916;8.074;2022-07-21T05:27:57;21.10;99.90
5560;DHT22;2803;47.916;8.074;2022-07-21T05:30:24;21.30;99.90
5560;DHT22;2803;47.916;8.074;2022-07-21T05:32:50;21.20;99.90
5560;DHT22;2803;47.916;8.074;2022-07-21T05:35:17;21.30;99.90
5560;DHT22;2803;47.916;8.074;2022-07-21T05:37:44;21.20;99.90
5560;DHT22;2803;47.916;8.074;2022-07-21T05:40:13;20.90;99.90
5560;DHT22;2803;47.916;8.074;2022-07-21T05:42:40;20.90;99.90
5560;DHT22;2803;47.916;8.074;2022-07-21T05:45:08;21.00;99.90
5560;DHT22;2803;47.916;8.074;2022-07-21T05:47:34;21.20;99.90
5560;DHT22;2803;47.916;8.074;2022-07-21T05:50:01;21.10;99.90
5560;DHT22;2803;47.916;8.074;2022-07-21T05:52:28;21.20;99.90
5560;DHT22;2803;47.916;8.074;2022-07-21T05:54:55;21.30;99.90
5560;DHT22;2803;47.916;8.074;2022-07-21T05:57:23;21.50;99.90
5560;DHT22;2803;47.916;8.074;2022-07-21T05:59:50;21.50;99.90
5560;DHT22;2803;47.916;8.074;2022-07-21T06:02:16;21.40;99.90
5560;DHT22;2803;47.916;8.074;2022-07-21T06:04:43;21.40;99.90
5560;DHT22;2803;47.916;8.074;2022-07-21T06:07:10;21.40;99.90
5560;DHT22;2803;47.916;8.074;2022-07-21T06:09:36;21.60;99.90
5560;DHT22;2803;47.916;8.074;2022-07-21T06:12:03;21.70;99.90
5560;DHT22;2803;47.916;8.074;2022-07-21T06:14:31;21.80;99.90
5560;DHT22;2803;47.916;8.074;2022-07-21T06:16:58;21.90;99.90
5560;DHT22;2803;47.916;8.074;2022-07-21T06:19:24;22.00;99.90
5560;DHT22;2803;47.916;8.074;2022-07-21T06:21:51;22.10;99.90
5560;DHT22;2803;47.916;8.074;2022-07-21T06:24:17;22.20;99.90
5560;DHT22;2803;47.916;8.074;2022-07-21T06:26:45;22.30;99.90
5560;DHT22;2803;47.916;8.074;2022-07-21T06:29:11;22.30;99.90
5560;DHT22;2803;47.916;8.074;2022-07-21T06:31:39;22.30;99.90
5560;DHT22;2803;47.916;8.074;2022-07-21T06:34:06;22.30;99.90
5560;DHT22;2803;47.916;8.074;2022-07-21T06:36:33;22.40;99.90
5560;DHT22;2803;47.916;8.074;2022-07-21T06:38:59;22.70;99.90
5560;DHT22;2803;47.916;8.074;2022-07-21T06:41:26;22.80;99.90
5560;DHT22;2803;47.916;8.074;2022-07-21T06:43:52;22.90;99.90
5560;DHT22;2803;47.916;8.074;2022-07-21T06:46:19;23.00;99.90
5560;DHT22;2803;47.916;8.074;2022-07-21T06:48:47;23.20;99.90
5560;DHT22;2803;47.916;8.074;2022-07-21T06:51:13;23.20;99.90
5560;DHT22;2803;47.916;8.074;2022-07-21T06:53:40;23.10;99.90
5560;DHT22;2803;47.916;8.074;2022-07-21T06:56:08;23.00;99.90
5560;DHT22;2803;47.916;8.074;2022-07-21T06:58:34;23.10;99.90
5560;DHT22;2803;47.916;8.074;2022-07-21T07:01:01;23.20;99.90
5560;DHT22;2803;47.916;8.074;2022-07-21T07:03:27;23.40;99.90
5560;DHT22;2803;47.916;8.074;2022-07-21T07:05:55;23.20;99.90
5560;DHT22;2803;47.916;8.074;2022-07-21T07:08:22;23.50;99.90
5560;DHT22;2803;47.916;8.074;2022-07-21T07:10:49;23.50;99.90
5560;DHT22;2803;47.916;8.074;2022-07-21T07:13:15;23.60;99.90
5560;DHT22;2803;47.916;8.074;2022-07-21T07:15:43;23.50;99.90
5560;DHT22;2803;47.916;8.074;2022-07-21T07:18:10;23.60;99.90
5560;DHT22;2803;47.916;8.074;2022-07-21T07:20:36;23.70;99.90
5560;DHT22;2803;47.916;8.074;2022-07-21T07:23:04;24.00;99.90
5560;DHT22;2803;47.916;8.074;2022-07-21T07:25:31;24.00;99.90
5560;DHT22;2803;47.916;8.074;2022-07-21T07:27:58;23.90;99.90
5560;DHT22;2803;47.916;8.074;2022-07-21T07:30:26;23.50;99.90
5560;DHT22;2803;47.916;8.074;2022-07-21T07:32:52;23.60;99.90
5560;DHT22;2803;47.916;8.074;2022-07-21T07:35:19;23.90;99.90
5560;DHT22;2803;47.916;8.074;2022-07-21T07:37:47;24.00;99.90
5560;DHT22;2803;47.916;8.074;2022-07-21T07:40:18;24.10;99.90
5560;DHT22;2803;47.916;8.074;2022-07-21T07:42:46;24.10;99.90
5560;DHT22;2803;47.916;8.074;2022-07-21T07:45:13;24.40;99.90
5560;DHT22;2803;47.916;8.074;2022-07-21T07:47:41;24.20;99.90
5560;DHT22;2803;47.916;8.074;2022-07-21T07:50:09;24.30;99.90
5560;DHT22;2803;47.916;8.074;2022-07-21T07:52:37;24.10;99.90
5560;DHT22;2803;47.916;8.074;2022-07-21T07:55:05;23.80;99.90
5560;DHT22;2803;47.916;8.074;2022-07-21T07:57:35;23.80;99.90
5560;DHT22;2803;47.916;8.074;2022-07-21T08:00:03;23.90;99.90
5560;DHT22;2803;47.916;8.074;2022-07-21T08:02:30;24.00;99.90
5560;DHT22;2803;47.916;8.074;2022-07-21T08:04:56;24.00;99.90
5560;DHT22;2803;47.916;8.074;2022-07-21T08:07:23;24.30;99.90
5560;DHT22;2803;47.916;8.074;2022-07-21T08:09:49;24.60;99.90
5560;DHT22;2803;47.916;8.074;2022-07-21T08:12:16;24.30;99.90
5560;DHT22;2803;47.916;8.074;2022-07-21T08:14:44;24.20;99.90
5560;DHT22;2803;47.916;8.074;2022-07-21T08:17:11;24.50;99.90
5560;DHT22;2803;47.916;8.074;2022-07-21T08:19:37;24.00;99.90
5560;DHT22;2803;47.916;8.074;2022-07-21T08:22:04;24.40;99.90
5560;DHT22;2803;47.916;8.074;2022-07-21T08:24:31;24.40;99.90
5560;DHT22;2803;47.916;8.074;2022-07-21T08:26:57;24.20;99.90
5560;DHT22;2803;47.916;8.074;2022-07-21T08:29:24;23.90;99.90
5560;DHT22;2803;47.916;8.074;2022-07-21T08:31:52;23.70;99.90
5560;DHT22;2803;47.916;8.074;2022-07-21T08:34:18;23.70;99.90
5560;DHT22;2803;47.916;8.074;2022-07-21T08:36:45;24.40;99.90
5560;DHT22;2803;47.916;8.074;2022-07-21T08:39:12;24.30;99.90
5560;DHT22;2803;47.916;8.074;2022-07-21T08:41:40;24.00;99.90
5560;DHT22;2803;47.916;8.074;2022-07-21T08:44:06;24.00;99.90
5560;DHT22;2803;47.916;8.074;2022-07-21T08:46:36;24.10;99.90
5560;DHT22;2803;47.916;8.074;2022-07-21T08:49:05;24.10;99.90
5560;DHT22;2803;47.916;8.074;2022-07-21T08:51:32;24.60;99.90
5560;DHT22;2803;47.916;8.074;2022-07-21T08:54:00;24.60;99.90
5560;DHT22;2803;47.916;8.074;2022-07-21T08:56:27;24.80;99.90
5560;DHT22;2803;47.916;8.074;2022-07-21T08:58:53;24.80;99.90
5560;DHT22;2803;47.916;8.074;2022-07-21T09:01:20;24.60;99.90
5560;DHT22;2803;47.916;8.074;2022-07-21T09:03:49;24.70;99.90
5560;DHT22;2803;47.916;8.074;2022-07-21T09:06:17;25.20;99.90
5560;DHT22;2803;47.916;8.074;2022-07-21T09:08:46;25.30;99.90
5560;DHT22;2803;47.916;8.074;2022-07-21T09:11:16;25.00;99.90
5560;DHT22;2803;47.916;8.074;2022-07-21T09:13:45;25.00;99.90
5560;DHT22;2803;47.916;8.074;2022-07-21T09:16:12;25.20;99.90
5560;DHT22;2803;47.916;8.074;2022-07-21T09:18:53;25.40;99.90
5560;DHT22;2803;47.916;8.074;2022-07-21T09:21:21;25.60;99.90
5560;DHT22;2803;47.916;8.074;2022-07-21T09:23:48;25.20;99.90
5560;DHT22;2803;47.916;8.074;2022-07-21T09:26:14;25.40;99.90
5560;DHT22;2803;47.916;8.074;2022-07-21T09:28:42;25.70;99.90
5560;DHT22;2803;47.916;8.074;2022-07-21T09:31:10;26.10;99.90
5560;DHT22;2803;47.916;8.074;2022-07-21T09:33:39;26.30;99.90
5560;DHT22;2803;47.916;8.074;2022-07-21T09:36:08;26.60;99.90
5560;DHT22;2803;47.916;8.074;2022-07-21T09:38:39;26.20;99.90
5560;DHT22;2803;47.916;8.074;2022-07-21T09:41:08;25.90;99.90
5560;DHT22;2803;47.916;8.074;2022-07-21T09:43:39;26.30;99.90
5560;DHT22;2803;47.916;8.074;2022-07-21T09:46:10;26.50;99.90
5560;DHT22;2803;47.916;8.074;2022-07-21T09:48:39;26.20;99.90
5560;DHT22;2803;47.916;8.074;2022-07-21T09:51:22;25.60;99.90
5560;DHT22;2803;47.916;8.074;2022-07-21T09:53:52;25.60;99.90
5560;DHT22;2803;47.916;8.074;2022-07-21T09:56:19;25.70;99.90
5560;DHT22;2803;47.916;8.074;2022-07-21T09:58:47;26.20;99.90
5560;DHT22;2803;47.916;8.074;2022-07-21T10:01:15;26.30;99.90
5560;DHT22;2803;47.916;8.074;2022-07-21T10:03:43;26.80;99.90
5560;DHT22;2803;47.916;8.074;2022-07-21T10:06:10;26.20;99.90
5560;DHT22;2803;47.916;8.074;2022-07-21T10:08:37;25.90;99.70
5560;DHT22;2803;47.916;8.074;2022-07-21T10:11:06;25.70;99.90
5560;DHT22;2803;47.916;8.074;2022-07-21T10:13:33;26.10;99.90
5560;DHT22;2803;47.916;8.074;2022-07-21T10:16:00;26.40;99.90
5560;DHT22;2803;47.916;8.074;2022-07-21T10:18:30;27.00;99.90
5560;DHT22;2803;47.916;8.074;2022-07-21T10:21:04;27.30;99.30
5560;DHT22;2803;47.916;8.074;2022-07-21T10:23:37;27.00;99.90
5560;DHT22;2803;47.916;8.074;2022-07-21T10:26:09;27.40;99.80
5560;DHT22;2803;47.916;8.074;2022-07-21T10:28:36;27.80;99.40
5560;DHT22;2803;47.916;8.074;2022-07-21T10:31:13;27.80;98.90
5560;DHT22;2803;47.916;8.074;2022-07-21T10:33:58;27.40;98.50
5560;DHT22;2803;47.916;8.074;2022-07-21T10:36:40;27.20;98.60
5560;DHT22;2803;47.916;8.074;2022-07-21T10:39:23;27.60;99.00
5560;DHT22;2803;47.916;8.074;2022-07-21T10:41:53;27.90;98.00
5560;DHT22;2803;47.916;8.074;2022-07-21T10:44:38;28.00;97.30
5560;DHT22;2803;47.916;8.074;2022-07-21T10:47:07;27.80;96.30
5560;DHT22;2803;47.916;8.074;2022-07-21T10:49:50;28.20;96.20
5560;DHT22;2803;47.916;8.074;2022-07-21T10:55:15;28.40;95.70
5560;DHT22;2803;47.916;8.074;2022-07-21T10:58:14;28.60;95.30
5560;DHT22;2803;47.916;8.074;2022-07-21T11:00:47;28.70;94.60
5560;DHT22;2803;47.916;8.074;2022-07-21T11:03:20;28.90;93.60
5560;DHT22;2803;47.916;8.074;2022-07-21T11:06:09;29.60;93.10
5560;DHT22;2803;47.916;8.074;2022-07-21T11:08:38;30.10;92.80
5560;DHT22;2803;47.916;8.074;2022-07-21T11:11:08;30.00;92.20
5560;DHT22;2803;47.916;8.074;2022-07-21T11:16:57;30.70;92.40
5560;DHT22;2803;47.916;8.074;2022-07-21T11:19:29;31.20;92.50
5560;DHT22;2803;47.916;8.074;2022-07-21T11:21:59;30.70;90.50
5560;DHT22;2803;47.916;8.074;2022-07-21T11:24:27;30.90;91.60
5560;DHT22;2803;47.916;8.074;2022-07-21T11:26:54;30.80;89.40
5560;DHT22;2803;47.916;8.074;2022-07-21T11:29:22;31.00;90.10
5560;DHT22;2803;47.916;8.074;2022-07-21T11:31:49;30.90;90.90
5560;DHT22;2803;47.916;8.074;2022-07-21T11:34:17;30.60;90.30
5560;DHT22;2803;47.916;8.074;2022-07-21T11:36:44;30.20;90.90
5560;DHT22;2803;47.916;8.074;2022-07-21T11:39:13;30.30;89.10
5560;DHT22;2803;47.916;8.074;2022-07-21T11:41:42;30.50;88.60
5560;DHT22;2803;47.916;8.074;2022-07-21T11:44:10;30.70;87.30
5560;DHT22;2803;47.916;8.074;2022-07-21T11:46:45;31.00;85.60
5560;DHT22;2803;47.916;8.074;2022-07-21T11:49:12;31.30;86.40
5560;DHT22;2803;47.916;8.074;2022-07-21T11:51:47;31.40;85.40
5560;DHT22;2803;47.916;8.074;2022-07-21T11:54:24;31.40;84.20
5560;DHT22;2803;47.916;8.074;2022-07-21T11:56:51;31.20;85.40
5560;DHT22;2803;47.916;8.074;2022-07-21T11:59:18;31.60;84.90
5560;DHT22;2803;47.916;8.074;2022-07-21T12:01:52;32.00;81.90
5560;DHT22;2803;47.916;8.074;2022-07-21T12:04:28;32.20;85.20
5560;DHT22;2803;47.916;8.074;2022-07-21T12:06:56;31.20;82.40
5560;DHT22;2803;47.916;8.074;2022-07-21T12:09:23;30.60;85.10
5560;DHT22;2803;47.916;8.074;2022-07-21T12:11:50;30.20;86.30
5560;DHT22;2803;47.916;8.074;2022-07-21T12:14:17;30.40;86.30
5560;DHT22;2803;47.916;8.074;2022-07-21T12:16:48;31.10;86.50
5560;DHT22;2803;47.916;8.074;2022-07-21T12:19:16;31.10;82.90
5560;DHT22;2803;47.916;8.074;2022-07-21T12:21:44;30.40;84.80
5560;DHT22;2803;47.916;8.074;2022-07-21T12:24:12;30.20;88.00
5560;DHT22;2803;47.916;8.074;2022-07-21T12:26:39;30.50;87.40
5560;DHT22;2803;47.916;8.074;2022-07-21T12:29:06;30.60;84.70
5560;DHT22;2803;47.916;8.074;2022-07-21T12:31:34;30.60;85.00
5560;DHT22;2803;47.916;8.074;2022-07-21T12:34:11;30.10;84.90
5560;DHT22;2803;47.916;8.074;2022-07-21T12:36:38;29.40;86.10
5560;DHT22;2803;47.916;8.074;2022-07-21T12:39:15;29.00;88.40
5560;DHT22;2803;47.916;8.074;2022-07-21T12:42:03;28.90;90.00
5560;DHT22;2803;47.916;8.074;2022-07-21T12:44:30;29.30;88.40
5560;DHT22;2803;47.916;8.074;2022-07-21T12:47:12;29.20;88.00
5560;DHT22;2803;47.916;8.074;2022-07-21T12:49:53;29.00;90.10
5560;DHT22;2803;47.916;8.074;2022-07-21T12:52:20;29.00;90.50
5560;DHT22;2803;47.916;8.074;2022-07-21T12:54:48;29.10;89.00
5560;DHT22;2803;47.916;8.074;2022-07-21T12:57:14;29.20;88.70
5560;DHT22;2803;47.916;8.074;2022-07-21T12:59:41;29.30;90.00
5560;DHT22;2803;47.916;8.074;2022-07-21T13:02:08;28.90;89.10
5560;DHT22;2803;47.916;8.074;2022-07-21T13:04:35;28.50;88.70
5560;DHT22;2803;47.916;8.074;2022-07-21T13:07:02;28.60;90.50
5560;DHT22;2803;47.916;8.074;2022-07-21T13:09:29;28.70;88.90
5560;DHT22;2803;47.916;8.074;2022-07-21T13:11:57;28.90;89.60
5560;DHT22;2803;47.916;8.074;2022-07-21T13:14:23;29.30;87.90
5560;DHT22;2803;47.916;8.074;2022-07-21T13:16:50;29.30;87.00
5560;DHT22;2803;47.916;8.074;2022-07-21T13:19:17;29.90;85.50
5560;DHT22;2803;47.916;8.074;2022-07-21T13:21:44;30.10;85.80
5560;DHT22;2803;47.916;8.074;2022-07-21T13:24:11;30.00;86.60
5560;DHT22;2803;47.916;8.074;2022-07-21T13:26:37;29.50;85.40
5560;DHT22;2803;47.916;8.074;2022-07-21T13:29:05;29.50;85.40
5560;DHT22;2803;47.916;8.074;2022-07-21T13:31:33;28.90;86.80
5560;DHT22;2803;47.916;8.074;2022-07-21T13:34:02;29.20;90.00
5560;DHT22;2803;47.916;8.074;2022-07-21T13:36:29;29.50;87.60
5560;DHT22;2803;47.916;8.074;2022-07-21T13:38:55;29.10;85.80
5560;DHT22;2803;47.916;8.074;2022-07-21T13:41:24;29.40;89.90
5560;DHT22;2803;47.916;8.074;2022-07-21T13:43:50;29.60;88.10
5560;DHT22;2803;47.916;8.074;2022-07-21T13:46:18;29.70;88.10
5560;DHT22;2803;47.916;8.074;2022-07-21T13:48:45;29.20;85.60
5560;DHT22;2803;47.916;8.074;2022-07-21T13:51:13;29.20;88.00
5560;DHT22;2803;47.916;8.074;2022-07-21T13:53:41;29.20;86.50
5560;DHT22;2803;47.916;8.074;2022-07-21T13:56:08;29.50;87.60
5560;DHT22;2803;47.916;8.074;2022-07-21T13:58:37;29.80;86.00
5560;DHT22;2803;47.916;8.074;2022-07-21T14:01:04;30.00;83.60
5560;DHT22;2803;47.916;8.074;2022-07-21T14:03:33;30.60;80.20
5560;DHT22;2803;47.916;8.074;2022-07-21T14:06:00;31.10;82.70
5560;DHT22;2803;47.916;8.074;2022-07-21T14:08:27;31.70;80.40
5560;DHT22;2803;47.916;8.074;2022-07-21T14:10:53;31.90;80.30
5560;DHT22;2803;47.916;8.074;2022-07-21T14:13:20;31.40;79.00
5560;DHT22;2803;47.916;8.074;2022-07-21T14:15:46;30.90;79.30
5560;DHT22;2803;47.916;8.074;2022-07-21T14:18:13;30.00;80.40
5560;DHT22;2803;47.916;8.074;2022-07-21T14:20:41;29.30;83.20
5560;DHT22;2803;47.916;8.074;2022-07-21T14:23:08;29.60;83.50
5560;DHT22;2803;47.916;8.074;2022-07-21T14:25:34;29.20;84.40
5560;DHT22;2803;47.916;8.074;2022-07-21T14:28:02;28.50;83.70
5560;DHT22;2803;47.916;8.074;2022-07-21T14:30:28;28.50;85.40
5560;DHT22;2803;47.916;8.074;2022-07-21T14:32:55;28.60;83.90
5560;DHT22;2803;47.916;8.074;2022-07-21T14:35:22;28.40;81.50
5560;DHT22;2803;47.916;8.074;2022-07-21T14:37:51;28.80;82.90
5560;DHT22;2803;47.916;8.074;2022-07-21T14:40:19;28.90;81.80
5560;DHT22;2803;47.916;8.074;2022-07-21T14:42:47;28.90;85.30
5560;DHT22;2803;47.916;8.074;2022-07-21T14:45:15;29.10;83.90
5560;DHT22;2803;47.916;8.074;2022-07-21T14:47:42;29.20;84.70
5560;DHT22;2803;47.916;8.074;2022-07-21T14:50:12;29.10;82.00
5560;DHT22;2803;47.916;8.074;2022-07-21T14:52:40;29.20;83.30
5560;DHT22;2803;47.916;8.074;2022-07-21T14:55:09;29.00;83.70
5560;DHT22;2803;47.916;8.074;2022-07-21T14:57:36;29.00;83.20
5560;DHT22;2803;47.916;8.074;2022-07-21T15:00:04;29.10;82.80
5560;DHT22;2803;47.916;8.074;2022-07-21T15:02:32;29.30;84.70
5560;DHT22;2803;47.916;8.074;2022-07-21T15:04:59;29.10;82.80
5560;DHT22;2803;47.916;8.074;2022-07-21T15:07:25;29.20;84.10
5560;DHT22;2803;47.916;8.074;2022-07-21T15:09:52;29.00;84.50
5560;DHT22;2803;47.916;8.074;2022-07-21T15:12:21;29.20;86.00
5560;DHT22;2803;47.916;8.074;2022-07-21T15:14:48;29.20;83.90
5560;DHT22;2803;47.916;8.074;2022-07-21T15:17:15;28.80;84.90
5560;DHT22;2803;47.916;8.074;2022-07-21T15:19:43;28.90;87.10
5560;DHT22;2803;47.916;8.074;2022-07-21T15:22:10;28.90;87.20
5560;DHT22;2803;47.916;8.074;2022-07-21T15:24:36;29.30;87.10
5560;DHT22;2803;47.916;8.074;2022-07-21T15:27:03;29.30;84.90
5560;DHT22;2803;47.916;8.074;2022-07-21T15:29:31;29.20;84.70
5560;DHT22;2803;47.916;8.074;2022-07-21T15:31:57;29.20;83.80
5560;DHT22;2803;47.916;8.074;2022-07-21T15:34:25;28.90;83.60
5560;DHT22;2803;47.916;8.074;2022-07-21T15:36:52;28.60;85.70
5560;DHT22;2803;47.916;8.074;2022-07-21T15:39:18;29.10;84.30
5560;DHT22;2803;47.916;8.074;2022-07-21T15:41:47;28.90;84.20
5560;DHT22;2803;47.916;8.074;2022-07-21T15:44:15;29.50;83.60
5560;DHT22;2803;47.916;8.074;2022-07-21T15:46:43;29.80;83.00
5560;DHT22;2803;47.916;8.074;2022-07-21T15:49:11;29.70;85.90
5560;DHT22;2803;47.916;8.074;2022-07-21T15:51:42;29.70;85.30
5560;DHT22;2803;47.916;8.074;2022-07-21T15:54:09;29.20;84.40
5560;DHT22;2803;47.916;8.074;2022-07-21T15:56:35;29.30;86.60
5560;DHT22;2803;47.916;8.074;2022-07-21T15:59:02;29.30;83.40
5560;DHT22;2803;47.916;8.074;2022-07-21T16:01:44;28.90;84.60
5560;DHT22;2803;47.916;8.074;2022-07-21T16:04:10;28.90;85.90
5560;DHT22;2803;47.916;8.074;2022-07-21T16:06:37;28.90;84.50
5560;DHT22;2803;47.916;8.074;2022-07-21T16:09:04;28.70;84.40
5560;DHT22;2803;47.916;8.074;2022-07-21T16:11:31;29.10;85.70
5560;DHT22;2803;47.916;8.074;2022-07-21T16:13:57;29.10;84.70